Sugarloaf Regional (B21)
Carrabassett, ME
Field Elevation: 885
Lat: 45°05.12N  Long: 70°12.98W
CTAF/Unicom Freq: 122.8000
   
    
Weather Advisories
9/17/2014 05:29 Z
Altimeter 29.98" Hg
Wind --
Gusts --
Visibility 10 SM
Temperature 3° C (37° F)
Dewpoint 2° C (36° F)
Relative Humidity 95%
Density Altitude --
Condensation Altitude 1,400 feet
Wind Chill -19° C (-2° F)
  Wind and Runways
History
 
 
More Info
All DigiWx sites map
 
NOAA Forecast
 
Airport IQ 5010
(39N) Princeton, NJ
(PN44) Upper Gwynedd Heliport
 
about DigiWx
 
FAA Disclaimer: The data displayed is for advisory purposes only and is not to be used for flight planning or operations. For official data, please call (not available) to hear the current automated AWOS voice message.
  METAR B21 170529Z AUTO 060999KT 10SM 03/02 A2998